Time;durP1;ratioP1;P1;durP2;ratioP2;P2;SDS_P1;SDS_P2;PMS_P1;PMS_P2;Temp;Humidity;BMP_temperature;BMP_pressure;BME280_temperature;BME280_humidity;BME280_pressure;Samples;Min_cycle;Max_cycle;Signal;HPM_P1;HPM_P2
2021/08/30 00:00:50;;;;;;;;;4.00;4.00;;;;;22.29;48.60;101515.53;5058957;28;46341;-47
2021/08/30 00:03:15;;;;;;;;;3.75;3.75;;;;;22.29;48.43;101507.63;5058838;28;45304;-47
2021/08/30 00:05:42;;;;;;;;;2.00;2.00;;;;;22.28;48.72;101503.25;5058988;28;45323;-50
2021/08/30 00:08:07;;;;;;;;;3.00;2.00;;;;;22.28;48.77;101505.91;5059113;28;45332;-48
2021/08/30 00:10:33;;;;;;;;;3.25;3.00;;;;;22.28;48.84;101508.53;5058663;28;46353;-52
2021/08/30 00:12:58;;;;;;;;;4.75;4.50;;;;;22.27;48.75;101507.66;5059024;28;45392;-52
2021/08/30 00:15:23;;;;;;;;;4.50;3.75;;;;;22.28;48.70;101505.91;5058812;28;45336;-51
2021/08/30 00:17:51;;;;;;;;;4.00;3.00;;;;;22.26;48.56;101500.72;5058820;28;45313;-53
2021/08/30 00:20:19;;;;;;;;;2.00;2.00;;;;;22.28;48.63;101508.53;5058719;28;46211;-50
2021/08/30 00:22:45;;;;;;;;;4.00;4.00;;;;;22.25;48.66;101501.66;5058603;28;45337;-50
2021/08/30 00:25:11;;;;;;;;;5.00;4.00;;;;;22.26;48.69;101492.78;5058817;28;45404;-54
2021/08/30 00:27:37;;;;;;;;;4.50;3.75;;;;;22.26;48.56;101502.47;5058884;28;45593;-49
2021/08/30 00:30:04;;;;;;;;;3.00;2.25;;;;;22.26;48.88;101507.75;5058959;28;45779;-51
2021/08/30 00:32:29;;;;;;;;;4.00;3.00;;;;;22.26;48.86;101505.13;5058707;28;45826;-49
2021/08/30 00:34:54;;;;;;;;;4.25;3.25;;;;;22.26;48.72;101499.84;5058544;28;45297;-48
2021/08/30 00:37:20;;;;;;;;;2.50;2.50;;;;;22.26;48.91;101500.72;5058662;28;45526;-48
2021/08/30 00:39:46;;;;;;;;;3.50;3.00;;;;;22.26;49.00;101489.28;5058373;28;46342;-47
2021/08/30 00:42:12;;;;;;;;;5.25;4.75;;;;;22.24;48.96;101487.56;5040194;28;45746;-47
2021/08/30 00:44:38;;;;;;;;;4.00;4.00;;;;;22.24;48.98;101487.56;5058370;28;45287;-49
2021/08/30 00:47:03;;;;;;;;;5.75;5.75;;;;;22.25;48.75;101485.81;5058781;28;45277;-48
2021/08/30 00:49:29;;;;;;;;;7.50;5.50;;;;;22.25;48.78;101488.44;5058205;28;46386;-48
2021/08/30 00:51:55;;;;;;;;;5.25;5.00;;;;;22.26;48.88;101486.63;5058060;28;45352;-48
2021/08/30 00:54:21;;;;;;;;;5.00;4.00;;;;;22.26;49.09;101489.28;5058509;28;45345;-48
2021/08/30 00:56:47;;;;;;;;;4.50;3.75;;;;;22.24;48.80;101484.09;5058440;28;45532;-49
2021/08/30 00:59:13;;;;;;;;;4.50;4.00;;;;;22.23;48.79;101485.84;5058058;28;46115;-48
2021/08/30 01:01:38;;;;;;;;;6.25;6.25;;;;;22.23;48.72;101480.56;5057930;28;45925;-47
2021/08/30 01:04:11;;;;;;;;;6.50;4.00;;;;;22.24;48.83;101486.72;5040508;28;45446;-50
2021/08/30 01:06:55;;;;;;;;;4.75;4.75;;;;;22.25;48.87;101480.53;5058241;28;45386;-48
2021/08/30 01:09:33;;;;;;;;;5.00;4.00;;;;;22.23;49.16;101475.28;5058047;28;47625;-48
2021/08/30 01:12:05;;;;;;;;;5.00;5.00;;;;;22.23;49.18;101480.56;5057895;28;45516;-48
2021/08/30 01:14:50;;;;;;;;;5.00;5.00;;;;;22.23;48.71;101474.47;5039858;28;45424;-48
2021/08/30 01:17:18;;;;;;;;;5.75;4.00;;;;;22.22;49.17;101478.88;5058273;28;45359;-51
2021/08/30 01:19:53;;;;;;;;;6.00;6.00;;;;;22.23;48.97;101474.47;5057644;28;45444;-54
2021/08/30 01:22:20;;;;;;;;;5.50;5.00;;;;;22.22;48.80;101478.88;5057568;28;45381;-50
2021/08/30 01:24:48;;;;;;;;;6.00;6.00;;;;;22.23;48.96;101474.47;5057712;28;45329;-48
2021/08/30 01:27:15;;;;;;;;;4.75;4.50;;;;;22.22;49.08;101473.59;5057862;28;45232;-50
2021/08/30 01:30:00;;;;;;;;;6.00;5.75;;;;;22.23;48.86;101474.47;5057397;28;45351;-48
2021/08/30 01:32:39;;;;;;;;;6.00;6.00;;;;;22.23;48.90;101469.19;5057761;28;45300;-49
2021/08/30 01:35:11;;;;;;;;;5.50;3.25;;;;;22.22;49.08;101476.22;5057852;28;45392;-51
2021/08/30 01:37:38;;;;;;;;;5.75;5.75;;;;;22.21;49.11;101469.25;5058031;28;45416;-50
2021/08/30 01:40:07;;;;;;;;;8.50;5.25;;;;;22.22;49.04;101468.31;5057531;28;45490;-48
2021/08/30 01:42:35;;;;;;;;;7.00;7.00;;;;;22.21;49.51;101471.88;5057811;28;45719;-49
2021/08/30 01:45:03;;;;;;;;;6.25;6.25;;;;;22.23;49.08;101469.19;5057351;28;45428;-48
2021/08/30 01:47:29;;;;;;;;;6.00;4.75;;;;;22.21;49.34;101463.97;5057602;28;45315;-51
2021/08/30 01:50:02;;;;;;;;;5.25;5.25;;;;;22.23;49.20;101470.00;5055856;28;47162;-46
2021/08/30 01:52:36;;;;;;;;;6.75;6.00;;;;;22.23;49.64;101464.72;5057215;28;45387;-51
2021/08/30 01:55:16;;;;;;;;;7.75;5.25;;;;;22.23;49.26;101463.91;5057243;28;45361;-47
2021/08/30 02:00:48;;;;;;;;;9.25;8.25;;;;;22.20;49.42;101459.63;5056685;28;45423;-49
2021/08/30 02:03:15;;;;;;;;;7.25;7.25;;;;;22.22;49.63;101468.31;5040981;28;45272;-51
2021/08/30 02:05:42;;;;;;;;;8.00;7.00;;;;;22.23;49.61;101463.91;5057221;28;45338;-48
2021/08/30 02:08:08;;;;;;;;;9.50;7.75;;;;;22.21;49.60;101466.59;5057519;28;45477;-50
2021/08/30 02:10:33;;;;;;;;;9.00;7.25;;;;;22.21;49.93;101457.84;5057084;28;46236;-48
2021/08/30 02:12:59;;;;;;;;;7.75;6.50;;;;;22.22;49.54;101465.66;5056876;28;45357;-51
2021/08/30 02:15:24;;;;;;;;;7.25;6.00;;;;;22.23;49.53;101464.72;5056941;28;45531;-48
2021/08/30 02:17:56;;;;;;;;;7.00;7.00;;;;;22.22;49.57;101468.31;5057206;28;45474;-49
2021/08/30 02:20:28;;;;;;;;;8.25;7.25;;;;;22.23;49.84;101470.00;5056838;28;45514;-48
2021/08/30 02:22:56;;;;;;;;;9.00;7.00;;;;;22.22;49.74;101465.66;5056644;28;45190;-50
2021/08/30 02:25:22;;;;;;;;;7.00;7.00;;;;;22.23;49.64;101458.63;5056880;28;45335;-48
2021/08/30 02:27:54;;;;;;;;;6.25;6.25;;;;;22.23;49.83;101463.91;5056855;28;45503;-49
2021/08/30 02:30:19;;;;;;;;;6.00;6.00;;;;;22.23;49.77;101458.63;5056636;28;46410;-50
2021/08/30 02:32:48;;;;;;;;;6.67;6.00;;;;;22.23;49.97;101455.97;5056727;28;45553;-49
2021/08/30 02:35:17;;;;;;;;;5.75;5.00;;;;;22.22;50.07;101452.47;5055414;28;45364;-51
2021/08/30 02:37:43;;;;;;;;;8.00;6.25;;;;;22.22;49.80;101457.75;5056819;28;45233;-51
2021/08/30 02:40:11;;;;;;;;;7.00;7.00;;;;;22.22;49.91;101455.09;5056877;28;45373;-48
2021/08/30 02:42:36;;;;;;;;;5.50;5.25;;;;;22.22;50.25;101455.09;5056951;28;45341;-50
2021/08/30 02:45:04;;;;;;;;;7.25;7.25;;;;;22.19;50.10;101451.78;5056541;28;45257;-51
2021/08/30 02:47:30;;;;;;;;;6.50;6.50;;;;;22.20;49.87;101449.09;5038900;28;45932;-49
2021/08/30 02:49:58;;;;;;;;;6.00;6.00;;;;;22.23;50.18;101459.47;5056168;28;46429;-48
2021/08/30 02:52:25;;;;;;;;;11.25;7.00;;;;;22.23;50.14;101458.63;5056333;28;45372;-53
2021/08/30 02:54:52;;;;;;;;;6.00;6.00;;;;;22.21;50.58;101449.91;5055220;28;45371;-52
2021/08/30 02:57:18;;;;;;;;;8.25;6.00;;;;;22.21;50.41;101448.13;5056685;28;45312;-52
2021/08/30 02:59:45;;;;;;;;;10.25;7.00;;;;;22.22;50.52;101455.09;5055965;28;45413;-51
2021/08/30 03:02:11;;;;;;;;;7.75;7.25;;;;;22.21;50.35;101453.41;5055292;28;45193;-49
2021/08/30 03:04:37;;;;;;;;;4.50;4.50;;;;;22.21;50.72;101453.41;5056483;28;45386;-47
2021/08/30 03:07:03;;;;;;;;;6.25;6.00;;;;;22.21;50.37;101449.91;5056601;28;45550;-50
2021/08/30 03:09:29;;;;;;;;;8.75;6.00;;;;;22.21;50.51;101456.03;5056129;28;46213;-50
2021/08/30 03:11:56;;;;;;;;;7.50;5.25;;;;;22.20;50.66;101450.84;5056183;28;45351;-49
2021/08/30 03:14:24;;;;;;;;;7.50;7.25;;;;;22.19;50.69;101451.78;5058277;28;45475;-48
2021/08/30 03:17:10;;;;;;;;;7.50;7.50;;;;;22.20;50.47;101449.09;5059998;28;45423;-52
2021/08/30 03:19:40;;;;;;;;;8.00;8.00;;;;;22.19;50.50;101452.66;5059600;28;45533;-52
2021/08/30 03:22:09;;;;;;;;;8.75;7.25;;;;;22.20;50.83;101451.72;5059586;28;45848;-49
2021/08/30 03:24:36;;;;;;;;;8.50;7.00;;;;;22.20;50.83;101449.09;5059627;28;45318;-50
2021/08/30 03:27:02;;;;;;;;;8.00;6.00;;;;;22.20;50.91;101454.34;5059812;28;45346;-49
2021/08/30 03:29:29;;;;;;;;;6.50;5.25;;;;;22.20;51.05;101448.22;5059244;28;46958;-52
2021/08/30 03:31:55;;;;;;;;;9.50;7.50;;;;;22.19;51.05;101447.38;5059503;28;45348;-49
2021/08/30 03:34:21;;;;;;;;;6.75;6.25;;;;;22.20;50.92;101448.22;5059552;28;45371;-49
2021/08/30 03:36:47;;;;;;;;;7.00;7.00;;;;;22.20;51.13;101443.81;5059773;28;45483;-52
2021/08/30 03:39:13;;;;;;;;;8.00;6.00;;;;;22.20;50.98;101445.56;5059371;28;46434;-51
2021/08/30 03:41:39;;;;;;;;;7.00;7.00;;;;;22.20;51.07;101443.81;5058434;28;45772;-52
2021/08/30 03:44:05;;;;;;;;;7.25;6.25;;;;;22.20;50.74;101442.94;5059216;28;45381;-49
2021/08/30 03:46:32;;;;;;;;;7.00;7.00;;;;;22.19;51.15;101439.44;5059590;28;45559;-49
2021/08/30 03:48:58;;;;;;;;;8.50;7.50;;;;;22.18;51.32;101445.66;5059336;28;46381;-49
2021/08/30 03:51:25;;;;;;;;;9.25;8.25;;;;;22.20;51.11;101446.44;5059241;28;45256;-50
2021/08/30 03:53:52;;;;;;;;;8.00;7.00;;;;;22.21;50.94;101444.63;5059243;28;45386;-51
2021/08/30 03:56:18;;;;;;;;;7.75;7.75;;;;;22.21;51.14;101449.91;5059304;28;45590;-48
2021/08/30 03:58:45;;;;;;;;;7.00;7.00;;;;;22.21;51.40;101439.34;5059091;28;46363;-49
2021/08/30 04:01:14;;;;;;;;;6.50;6.50;;;;;22.20;51.23;101437.66;5059321;28;45504;-48
2021/08/30 04:03:43;;;;;;;;;9.50;8.75;;;;;22.19;51.25;101436.81;5059424;28;45463;-48
2021/08/30 04:06:11;;;;;;;;;7.25;6.25;;;;;22.21;51.18;101442.00;5059280;28;45504;-48
2021/08/30 04:08:37;;;;;;;;;7.00;6.25;;;;;22.21;51.42;101442.00;5059064;28;45327;-49
2021/08/30 04:11:04;;;;;;;;;4.00;3.75;;;;;22.20;51.51;101433.25;5058762;28;45317;-51
2021/08/30 04:13:30;;;;;;;;;6.25;6.25;;;;;22.19;51.26;101439.44;5059242;28;45261;-49
2021/08/30 04:15:56;;;;;;;;;10.00;8.75;;;;;22.19;51.11;101442.09;5059185;28;45399;-48
2021/08/30 04:18:21;;;;;;;;;7.00;7.00;;;;;22.21;51.50;101444.63;5058592;28;45482;-49
2021/08/30 04:20:47;;;;;;;;;9.00;7.75;;;;;22.19;51.71;101442.09;5058681;28;45352;-49
2021/08/30 04:23:12;;;;;;;;;10.25;8.25;;;;;22.21;51.38;101434.06;5058966;28;45331;-49
2021/08/30 04:25:37;;;;;;;;;6.75;6.25;;;;;22.20;51.48;101441.16;5058332;28;45682;-50
2021/08/30 04:28:03;;;;;;;;;9.00;7.75;;;;;22.20;51.48;101438.53;5058618;28;46180;-51
2021/08/30 04:30:28;;;;;;;;;8.25;7.25;;;;;22.21;51.31;101445.47;5058697;28;45483;-49
2021/08/30 04:32:55;;;;;;;;;8.25;7.00;;;;;22.21;51.58;101442.84;5058651;28;45374;-51
2021/08/30 04:35:21;;;;;;;;;6.50;6.50;;;;;22.23;51.60;101446.25;5040942;28;45370;-48
2021/08/30 04:37:47;;;;;;;;;10.75;7.25;;;;;22.19;51.60;101442.09;5058273;28;45371;-52
2021/08/30 04:40:13;;;;;;;;;7.00;7.00;;;;;22.24;51.33;101450.59;5058643;28;45250;-49
2021/08/30 04:42:38;;;;;;;;;7.50;6.25;;;;;22.26;51.46;101447.03;5058545;28;45284;-48
2021/08/30 04:45:05;;;;;;;;;9.00;9.00;;;;;22.25;51.69;101443.56;5058505;28;45325;-50
2021/08/30 04:47:32;;;;;;;;;8.00;8.00;;;;;22.26;51.31;101452.31;5058130;28;45446;-48
2021/08/30 04:49:57;;;;;;;;;10.00;9.75;;;;;22.26;51.54;101455.81;5058233;28;45371;-49
2021/08/30 04:52:23;;;;;;;;;8.75;8.75;;;;;22.25;51.72;101448.84;5058447;28;45310;-47
2021/08/30 04:54:48;;;;;;;;;10.75;8.75;;;;;22.27;51.67;101454.84;5058409;28;45287;-48
2021/08/30 04:57:13;;;;;;;;;10.00;7.75;;;;;22.26;51.62;101453.19;5058418;28;45323;-50
2021/08/30 04:59:39;;;;;;;;;9.00;8.00;;;;;22.28;51.68;101455.72;5039998;28;46210;-52
2021/08/30 05:02:04;;;;;;;;;10.00;7.00;;;;;22.28;51.77;101461.00;5058136;28;45406;-50
2021/08/30 05:04:29;;;;;;;;;8.00;8.00;;;;;22.27;51.84;101454.84;5058258;28;45685;-52
2021/08/30 05:06:55;;;;;;;;;9.25;7.75;;;;;22.28;51.80;101455.72;5058082;28;47020;-49
2021/08/30 05:09:20;;;;;;;;;8.50;8.00;;;;;22.28;51.79;101455.72;5057873;28;45305;-49
2021/08/30 05:11:45;;;;;;;;;12.75;9.50;;;;;22.29;51.66;101466.19;5058321;28;45339;-48
2021/08/30 05:14:11;;;;;;;;;10.25;8.25;;;;;22.29;51.97;101457.44;5058064;28;45587;-51
2021/08/30 05:16:36;;;;;;;;;10.00;10.00;;;;;22.28;51.99;101455.72;5057708;28;46449;-50
2021/08/30 05:19:02;;;;;;;;;7.00;7.00;;;;;22.29;51.96;101457.44;5057904;28;45274;-49
2021/08/30 05:21:27;;;;;;;;;9.00;7.50;;;;;22.29;51.60;101460.06;5057838;28;45803;-51
2021/08/30 05:23:52;;;;;;;;;8.25;8.25;;;;;22.28;52.00;101459.22;5058007;28;45475;-52
2021/08/30 05:26:18;;;;;;;;;10.25;9.25;;;;;22.29;52.21;101457.44;5039824;28;48036;-52
2021/08/30 05:28:43;;;;;;;;;11.50;10.00;;;;;22.28;51.94;101461.84;5057899;28;45253;-50
2021/08/30 05:31:08;;;;;;;;;11.00;9.00;;;;;22.27;52.15;101460.13;5057718;28;45969;-52
2021/08/30 05:33:36;;;;;;;;;9.50;9.00;;;;;22.28;51.99;101463.66;5057855;28;45533;-52
2021/08/30 05:36:02;;;;;;;;;11.25;9.50;;;;;22.30;52.31;101464.44;5057405;28;46159;-50
2021/08/30 05:38:27;;;;;;;;;11.25;9.25;;;;;22.29;52.15;101462.72;5056381;28;45356;-49
2021/08/30 05:40:53;;;;;;;;;10.00;9.25;;;;;22.30;52.07;101467.06;5057367;28;45320;-51
2021/08/30 05:43:18;;;;;;;;;9.50;8.00;;;;;22.30;52.11;101469.72;5057622;28;45621;-49
2021/08/30 05:45:43;;;;;;;;;9.00;8.75;;;;;22.26;52.05;101461.09;5057314;28;46413;-51
2021/08/30 05:48:09;;;;;;;;;10.25;9.75;;;;;22.30;52.15;101469.72;5057058;28;47581;-52
2021/08/30 05:50:34;;;;;;;;;11.00;10.00;;;;;22.29;51.98;101468.84;5057427;28;45363;-52
2021/08/30 05:52:59;;;;;;;;;11.00;11.00;;;;;22.28;52.35;101467.13;5057526;28;45391;-49
2021/08/30 05:55:25;;;;;;;;;10.25;10.25;;;;;22.29;52.01;101474.13;5057255;28;45486;-52
2021/08/30 05:57:50;;;;;;;;;12.50;11.00;;;;;22.29;52.03;101473.28;5056838;28;50093;-51
2021/08/30 06:00:17;;;;;;;;;9.75;9.75;;;;;22.28;52.08;101482.13;5057316;28;45428;-52
2021/08/30 06:02:42;;;;;;;;;14.75;14.25;;;;;22.27;52.28;101481.25;5057418;28;45166;-49
2021/08/30 06:05:08;;;;;;;;;14.00;11.75;;;;;22.27;52.26;101478.63;5056961;28;46138;-49
2021/08/30 06:07:34;;;;;;;;;14.75;14.00;;;;;22.27;52.55;101475.97;5056957;28;45358;-49
2021/08/30 06:09:59;;;;;;;;;12.75;11.75;;;;;22.28;52.49;101482.13;5056906;28;45359;-48
2021/08/30 06:12:24;;;;;;;;;15.50;13.75;;;;;22.26;52.67;101479.59;5057214;28;45629;-48
2021/08/30 06:14:50;;;;;;;;;14.00;14.00;;;;;22.26;52.63;101478.72;5057172;28;46105;-52
2021/08/30 06:17:15;;;;;;;;;14.75;14.75;;;;;22.26;52.57;101478.72;5056830;28;45360;-49
2021/08/30 06:19:42;;;;;;;;;13.50;13.50;;;;;22.27;52.72;101480.44;5057022;28;45481;-50
2021/08/30 06:22:08;;;;;;;;;18.00;14.50;;;;;22.26;52.71;101484.00;5038895;28;45656;-50
2021/08/30 06:24:33;;;;;;;;;20.00;15.25;;;;;22.24;52.58;101489.38;5056311;28;45461;-53
2021/08/30 06:26:59;;;;;;;;;19.25;17.00;;;;;22.23;52.97;101485.84;5056992;28;45498;-51
2021/08/30 06:29:24;;;;;;;;;17.00;16.00;;;;;22.22;52.85;101489.44;5056722;28;45317;-51
2021/08/30 06:31:50;;;;;;;;;14.00;14.00;;;;;22.23;52.93;101492.94;5057315;28;45475;-52
2021/08/30 06:34:15;;;;;;;;;18.50;17.25;;;;;22.23;52.87;101495.59;5056527;28;46395;-50
2021/08/30 06:36:41;;;;;;;;;18.50;17.25;;;;;22.22;52.77;101499.16;5056535;28;45191;-52
2021/08/30 06:39:06;;;;;;;;;16.00;16.00;;;;;22.21;52.60;101502.72;5056473;28;45498;-49
2021/08/30 06:41:32;;;;;;;;;19.50;15.50;;;;;22.20;52.88;101499.25;5056870;28;45523;-52
2021/08/30 06:43:57;;;;;;;;;19.00;16.75;;;;;22.20;53.08;101499.25;5056499;28;45372;-53
2021/08/30 06:46:22;;;;;;;;;20.25;17.25;;;;;22.23;53.26;101495.59;5056415;28;45256;-51
2021/08/30 06:48:48;;;;;;;;;16.50;16.50;;;;;22.21;53.04;101498.28;5056576;28;45351;-51
2021/08/30 06:51:13;;;;;;;;;21.50;17.25;;;;;22.22;53.20;101496.50;5038471;28;45248;-53
2021/08/30 06:53:39;;;;;;;;;20.75;20.50;;;;;22.21;53.11;101500.91;5056102;28;46140;-51
2021/08/30 06:56:05;;;;;;;;;19.50;17.00;;;;;22.21;52.85;101497.44;5056182;28;45402;-50
2021/08/30 06:58:30;;;;;;;;;18.75;18.75;;;;;22.22;53.19;101502.63;5038177;28;45498;-53
2021/08/30 07:00:56;;;;;;;;;19.25;18.25;;;;;22.22;52.94;101505.28;5056679;28;45368;-52
2021/08/30 07:03:21;;;;;;;;;17.50;16.00;;;;;22.21;53.01;101497.44;5055996;28;47169;-52
2021/08/30 07:05:46;;;;;;;;;19.50;16.25;;;;;22.22;53.16;101496.50;5056073;28;45421;-48
2021/08/30 07:08:12;;;;;;;;;17.00;17.00;;;;;22.23;53.13;101506.97;5056257;28;45745;-48
2021/08/30 07:10:37;;;;;;;;;21.75;18.50;;;;;22.23;53.12;101500.88;5056338;28;45367;-46
2021/08/30 07:13:03;;;;;;;;;18.25;17.75;;;;;22.24;53.12;101502.56;5055995;28;45510;-47
2021/08/30 07:15:28;;;;;;;;;14.75;14.75;;;;;22.24;52.86;101516.63;5055992;28;45269;-48
2021/08/30 07:17:53;;;;;;;;;16.75;15.50;;;;;22.26;52.85;101513.03;5056405;28;45332;-47
2021/08/30 07:20:19;;;;;;;;;15.25;15.00;;;;;22.26;53.22;101520.97;5056720;28;45336;-47
2021/08/30 07:22:44;;;;;;;;;19.00;16.00;;;;;22.27;53.03;101522.69;5055803;28;46565;-47
2021/08/30 07:25:10;;;;;;;;;20.50;17.25;;;;;22.26;52.87;101520.97;5055858;28;45307;-48
2021/08/30 07:27:36;;;;;;;;;19.50;17.25;;;;;22.28;53.06;101524.38;5056037;28;45261;-49
2021/08/30 07:30:02;;;;;;;;;17.75;17.75;;;;;22.29;53.25;101528.75;5056065;28;45487;-47
2021/08/30 07:32:28;;;;;;;;;19.00;18.00;;;;;22.30;53.21;101522.53;5055794;28;46372;-47
2021/08/30 07:34:53;;;;;;;;;17.50;16.50;;;;;22.30;53.15;101522.53;5056059;28;45237;-48
2021/08/30 07:37:18;;;;;;;;;22.50;19.00;;;;;22.30;53.01;101523.38;5055799;28;45305;-48
2021/08/30 07:39:44;;;;;;;;;19.50;18.50;;;;;22.31;53.05;101529.50;5055911;28;45542;-51
2021/08/30 07:42:09;;;;;;;;;18.75;18.50;;;;;22.32;53.26;101531.22;5055510;28;47522;-49
2021/08/30 07:44:35;;;;;;;;;18.25;17.50;;;;;22.33;53.25;101532.91;5055851;28;45841;-47
2021/08/30 07:47:00;;;;;;;;;22.25;19.50;;;;;22.31;53.22;101535.63;5054640;28;45315;-47
2021/08/30 07:49:25;;;;;;;;;18.00;16.25;;;;;22.32;53.13;101536.50;5056036;28;45568;-51
2021/08/30 07:51:50;;;;;;;;;18.75;18.75;;;;;22.32;53.23;101540.00;5055803;28;45501;-49
2021/08/30 07:54:16;;;;;;;;;18.50;16.50;;;;;22.34;52.85;101542.53;5055566;28;45372;-48
2021/08/30 07:56:41;;;;;;;;;20.00;17.25;;;;;22.34;52.63;101539.91;5055831;28;45436;-47
2021/08/30 07:59:08;;;;;;;;;19.75;16.50;;;;;22.35;52.87;101536.31;5055796;28;45451;-47
2021/08/30 08:01:34;;;;;;;;;18.75;17.50;;;;;22.34;52.89;101535.50;5057462;28;45584;-47
2021/08/30 08:04:00;;;;;;;;;15.50;14.75;;;;;22.34;52.82;101546.06;5058765;28;45321;-47
2021/08/30 08:06:25;;;;;;;;;22.25;20.75;;;;;22.35;53.23;101544.25;5041308;28;45265;-46
2021/08/30 08:08:51;;;;;;;;;20.25;19.75;;;;;22.35;53.14;101544.25;5057780;28;45334;-49
2021/08/30 08:11:16;;;;;;;;;23.50;20.00;;;;;22.34;52.91;101551.34;5058630;28;46162;-48
2021/08/30 08:13:41;;;;;;;;;22.00;16.75;;;;;22.33;52.87;101554.03;5058650;28;54501;-50
2021/08/30 08:16:07;;;;;;;;;19.75;18.25;;;;;22.33;52.91;101551.38;5058969;28;45222;-49
2021/08/30 08:18:33;;;;;;;;;15.25;15.00;;;;;22.32;52.80;101553.19;5040863;28;45257;-49
2021/08/30 08:21:02;;;;;;;;;12.25;12.25;;;;;22.31;52.98;101553.28;5058723;28;46231;-48
2021/08/30 08:23:27;;;;;;;;;15.25;15.25;;;;;22.32;52.98;101558.47;5058790;28;45820;-51
2021/08/30 08:25:52;;;;;;;;;19.00;12.75;;;;;22.32;52.80;101557.63;5040958;28;45458;-52
2021/08/30 08:28:18;;;;;;;;;14.75;14.75;;;;;22.32;52.54;101565.56;5058801;28;45281;-48
2021/08/30 08:30:43;;;;;;;;;18.25;16.00;;;;;22.31;52.62;101561.22;5058461;28;45748;-51
2021/08/30 08:33:09;;;;;;;;;18.00;16.00;;;;;22.31;52.72;101566.50;5058441;28;45442;-49
2021/08/30 08:35:35;;;;;;;;;20.75;16.25;;;;;22.31;52.52;101566.50;5058564;28;45350;-51
2021/08/30 08:38:00;;;;;;;;;18.00;16.25;;;;;22.32;52.07;101568.19;5058628;28;45479;-53
2021/08/30 08:40:26;;;;;;;;;17.75;15.00;;;;;22.31;52.68;101566.50;5058535;28;46370;-53
2021/08/30 08:42:51;;;;;;;;;20.75;17.25;;;;;22.31;52.45;101571.78;5058105;28;45301;-53
2021/08/30 08:45:18;;;;;;;;;19.50;16.50;;;;;22.31;52.29;101567.31;5058407;28;45343;-50
2021/08/30 08:47:45;;;;;;;;;15.00;13.50;;;;;22.30;51.91;101562.97;5058678;28;45510;-48
2021/08/30 08:50:14;;;;;;;;;16.00;15.25;;;;;22.31;52.22;101571.78;5058153;28;46313;-52
2021/08/30 08:52:41;;;;;;;;;16.75;13.00;;;;;22.32;52.31;101578.75;5058271;28;45364;-50
2021/08/30 08:55:07;;;;;;;;;17.75;16.75;;;;;22.32;52.34;101569.03;5058353;28;45233;-48
2021/08/30 08:57:33;;;;;;;;;15.50;15.25;;;;;22.35;52.41;101565.38;5058420;28;45602;-47
2021/08/30 09:00:00;;;;;;;;;17.00;16.50;;;;;22.36;52.34;101564.44;5058155;28;46402;-50
2021/08/30 09:02:27;;;;;;;;;14.75;14.75;;;;;22.41;52.21;101561.59;5058419;28;45498;-52
2021/08/30 09:04:54;;;;;;;;;20.25;14.00;;;;;22.42;52.45;101561.53;5058061;28;45314;-50
2021/08/30 09:07:30;;;;;;;;;13.25;12.75;;;;;22.43;52.24;101560.59;5058408;28;45324;-50
2021/08/30 09:09:58;;;;;;;;;16.75;13.75;;;;;22.46;52.17;101563.06;5058019;28;46161;-48
2021/08/30 09:12:23;;;;;;;;;19.50;16.50;;;;;22.48;52.12;101563.84;5056596;28;45306;-53
2021/08/30 09:14:50;;;;;;;;;16.75;14.25;;;;;22.50;52.73;101561.97;5057953;28;45299;-49
2021/08/30 09:17:16;;;;;;;;;16.50;15.25;;;;;22.50;52.26;101567.28;5058021;28;45528;-50
2021/08/30 09:19:41;;;;;;;;;17.75;15.25;;;;;22.52;51.93;101575.09;5057627;28;46430;-49
2021/08/30 09:22:08;;;;;;;;;15.00;14.50;;;;;22.54;51.46;101579.38;5057701;28;45320;-51
2021/08/30 09:24:35;;;;;;;;;15.25;14.00;;;;;22.56;51.35;101581.94;5057726;28;45343;-51
2021/08/30 09:27:06;;;;;;;;;16.25;15.50;;;;;22.58;51.08;101584.50;5058366;28;45522;-50
2021/08/30 09:29:34;;;;;;;;;13.00;13.00;;;;;22.57;50.94;101586.28;5023253;28;46336;-55
2021/08/30 09:32:06;;;;;;;;;16.00;13.25;;;;;22.57;50.92;101583.66;5057857;28;45313;-53
2021/08/30 09:34:34;;;;;;;;;17.50;16.25;;;;;22.57;51.24;101594.22;5057440;28;45358;-51
2021/08/30 09:37:00;;;;;;;;;17.75;14.75;;;;;22.58;51.25;101581.84;5039975;28;45373;-53
2021/08/30 09:39:26;;;;;;;;;17.50;15.25;;;;;22.60;51.20;101567.63;5057399;28;45409;-51
2021/08/30 09:41:53;;;;;;;;;15.00;15.00;;;;;22.64;50.91;101584.19;5057671;28;45916;-54
2021/08/30 09:44:26;;;;;;;;;18.50;15.25;;;;;22.66;51.30;101583.16;5057639;28;45280;-54
2021/08/30 09:46:53;;;;;;;;;15.25;15.00;;;;;22.69;51.23;101585.66;5057657;28;45254;-51
2021/08/30 09:49:21;;;;;;;;;14.25;13.25;;;;;22.71;51.32;101585.56;5057297;28;45297;-49
2021/08/30 09:51:50;;;;;;;;;13.50;12.75;;;;;22.74;50.91;101582.78;5057357;28;45373;-52
2021/08/30 09:54:18;;;;;;;;;15.25;15.25;;;;;22.74;51.00;101573.97;5057437;28;45414;-53
2021/08/30 09:56:45;;;;;;;;;15.00;15.00;;;;;22.74;50.93;101574.84;5057565;28;45395;-52
2021/08/30 09:59:12;;;;;;;;;16.00;15.00;;;;;22.74;50.92;101572.19;5056899;28;46567;-52
2021/08/30 10:01:39;;;;;;;;;13.00;12.25;;;;;22.74;50.57;101574.84;5057147;28;45278;-51
2021/08/30 10:04:07;;;;;;;;;13.50;12.75;;;;;22.73;50.67;101561.69;5057267;28;45335;-53
2021/08/30 10:06:38;;;;;;;;;13.00;13.00;;;;;22.72;50.36;101570.56;5057734;28;45319;-51
2021/08/30 10:09:10;;;;;;;;;18.50;15.00;;;;;22.73;50.62;101577.53;5056362;28;46608;-54
2021/08/30 10:11:37;;;;;;;;;14.25;13.00;;;;;22.73;50.66;101565.19;5056853;28;45403;-54
2021/08/30 10:14:06;;;;;;;;;18.25;13.25;;;;;22.73;50.68;101565.19;5057545;28;45395;-56
2021/08/30 10:16:35;;;;;;;;;15.00;14.75;;;;;22.75;50.53;101578.31;5057509;28;45494;-53
2021/08/30 10:19:01;;;;;;;;;15.00;13.00;;;;;22.74;50.63;101568.69;5057077;28;46833;-55
2021/08/30 10:21:28;;;;;;;;;15.75;15.75;;;;;22.73;50.32;101566.97;5056776;28;45336;-51
2021/08/30 10:23:53;;;;;;;;;14.50;13.00;;;;;22.72;50.22;101557.34;5038060;28;45312;-54
2021/08/30 10:26:19;;;;;;;;;15.75;13.75;;;;;22.71;50.33;101561.78;5057199;28;45356;-55
2021/08/30 10:28:47;;;;;;;;;16.25;13.75;;;;;22.70;49.94;101563.59;5056624;28;46269;-54
2021/08/30 10:31:15;;;;;;;;;14.75;13.75;;;;;22.69;50.07;101558.38;5056919;28;45236;-53
2021/08/30 10:33:44;;;;;;;;;15.75;12.50;;;;;22.67;49.82;101557.59;5057086;28;45437;-51
2021/08/30 10:36:14;;;;;;;;;18.25;14.00;;;;;22.65;50.00;101560.31;5056983;28;45407;-51
2021/08/30 10:38:40;;;;;;;;;18.75;17.25;;;;;22.64;49.80;101561.25;5056571;28;46211;-51
2021/08/30 10:41:15;;;;;;;;;17.75;16.75;;;;;22.62;49.89;101557.00;5056610;28;45403;-53
2021/08/30 10:43:45;;;;;;;;;14.75;14.25;;;;;22.63;49.74;101561.34;5038604;28;45491;-54
2021/08/30 10:46:17;;;;;;;;;14.50;13.50;;;;;22.62;49.76;101560.47;5056849;28;45270;-54
2021/08/30 10:48:49;;;;;;;;;12.25;12.25;;;;;22.62;49.74;101560.47;5056455;28;45547;-55
2021/08/30 10:51:21;;;;;;;;;15.75;13.25;;;;;22.62;49.72;101570.19;5056520;28;45985;-56
2021/08/30 10:53:59;;;;;;;;;18.00;15.00;;;;;22.60;49.79;101575.53;5056583;28;45416;-56
2021/08/30 10:56:27;;;;;;;;;15.25;15.25;;;;;22.60;49.76;101561.50;5055741;28;45346;-56
2021/08/30 10:58:53;;;;;;;;;7.00;6.00;;;;;22.59;49.76;101570.34;5056056;28;45551;-57
2021/08/30 11:01:18;;;;;;;;;14.00;13.25;;;;;22.59;49.71;101576.50;5056355;28;45450;-57
2021/08/30 11:03:52;;;;;;;;;19.00;15.50;;;;;22.59;49.75;101570.34;5055935;28;45375;-52
2021/08/30 11:06:17;;;;;;;;;14.50;13.25;;;;;22.59;49.68;101559.78;5056676;28;45514;-51
2021/08/30 11:08:43;;;;;;;;;14.50;14.25;;;;;22.60;49.64;101566.78;5056183;28;46445;-52
2021/08/30 11:11:08;;;;;;;;;11.25;11.25;;;;;22.60;49.57;101561.50;5038265;28;45402;-54
2021/08/30 11:13:34;;;;;;;;;13.00;12.67;;;;;22.60;49.61;101562.34;5056616;28;45343;-57
2021/08/30 11:15:59;;;;;;;;;15.25;13.75;;;;;22.61;49.48;101564.03;5056742;28;45466;-56
2021/08/30 11:18:25;;;;;;;;;13.75;13.25;;;;;22.63;49.69;101566.63;5055948;28;45429;-56